Terminal Aerodrome Forecast
Issued by NWS

Home | Current Version | Previous Version | Text Only | Print | Product List | Glossary Off
Versions: 1 2 3 4 5 6 7 8 9 10 11 12 13 14

000
FTUS43 KOAX 200500
TAFCDR
TAF
KCDR 200540Z 2006/2106 17010KT P6SM BKN100
     FM201000 VRB05KT P6SM VCSH BKN100
     FM210200 VRB03KT P6SM BKN100=

USA.gov is the U.S. government's official web portal to all federal, state and local government web resources and services.